메인 페이지
METAR-TAF:

METAR-TAF

공항 :

포트워스, 텍사스, 미국

위도: 32-49-31N, 경도: 097-21-51W, 고도: 216m

현재 날씨관측

예보는 57분 전, 11:53시(UTC)에 발표되었습니다.
남동4kt
온도 17°C
습도 94%
기압 1013 hPa
시정: 16.1km
맑음

METAR: KFTW 261153Z AUTO 13004KT 10SM CLR 17/16 A2992 RMK AO2 SLP124 T01720161 10200 20172 53002

시각: 07:50 (12:50 UTC)

예보

예보는 1 시간 30분 전, 11:20시(UTC)에 발표되었습니다.
예보 대상 시간: 26일 12시부터 27일 12시까지 (UTC)
남동5kt
시정: 10km
맑음
26일 1600시부터 (UTC)
11kt
시정: 10km
고도 4000ft 상공 구름 보통

TAF: KFTW 261120Z 2612/2712 14005KT P6SM SKC FM261600 17011KT P6SM SCT040

4,000개 이상의 공항 관측 자료 및 예보 (METAR 및 TAF 보고).

지도상에서 검색 가능한 기상관측소가 노란 점과 빨간 점으로 표시되어 있습니다.

기상관측소 명을 보려면 표시 위로 마우스를 이동하세요.

날씨 관측과 예보를 보려면 클릭하세요.

지도 변경 : 확대하려면 엑스 표시가 있는 녹색 버튼, 축소하려면 빼기 표시가 있는 녹색 버튼, 다음 페이지의 지도를 보려면 녹색 화살표를 클릭하세요.


METAR-TAF: